sensor_id;sensor_type;location;lat;lon;timestamp;P1;durP1;ratioP1;P2;durP2;ratioP2
35326;SDS011;21436;52.348;20.928;2022-09-09T00:04:58;16.75;;;8.25;;
35326;SDS011;21436;52.348;20.928;2022-09-09T00:10:28;16.15;;;8.75;;
35326;SDS011;21436;52.348;20.928;2022-09-09T00:13:01;13.73;;;8.63;;
35326;SDS011;21436;52.348;20.928;2022-09-09T00:21:05;15.82;;;8.80;;
35326;SDS011;21436;52.348;20.928;2022-09-09T00:23:38;18.38;;;8.02;;
35326;SDS011;21436;52.348;20.928;2022-09-09T00:28:41;16.65;;;8.75;;
35326;SDS011;21436;52.348;20.928;2022-09-09T00:31:17;16.25;;;8.07;;
35326;SDS011;21436;52.348;20.928;2022-09-09T00:33:48;20.80;;;8.82;;
35326;SDS011;21436;52.348;20.928;2022-09-09T00:36:17;17.70;;;9.18;;
35326;SDS011;21436;52.348;20.928;2022-09-09T00:38:51;17.40;;;9.25;;
35326;SDS011;21436;52.348;20.928;2022-09-09T00:41:22;12.48;;;7.25;;
35326;SDS011;21436;52.348;20.928;2022-09-09T00:44:32;20.00;;;8.85;;
35326;SDS011;21436;52.348;20.928;2022-09-09T00:55:28;16.80;;;8.88;;
35326;SDS011;21436;52.348;20.928;2022-09-09T00:58:15;18.50;;;10.07;;
35326;SDS011;21436;52.348;20.928;2022-09-09T01:01:16;17.92;;;9.38;;
35326;SDS011;21436;52.348;20.928;2022-09-09T01:03:41;18.23;;;9.75;;
35326;SDS011;21436;52.348;20.928;2022-09-09T01:20:03;18.30;;;9.43;;
35326;SDS011;21436;52.348;20.928;2022-09-09T01:22:47;20.08;;;9.48;;
35326;SDS011;21436;52.348;20.928;2022-09-09T01:25:22;20.33;;;9.82;;
35326;SDS011;21436;52.348;20.928;2022-09-09T01:28:21;18.42;;;9.52;;
35326;SDS011;21436;52.348;20.928;2022-09-09T01:30:52;18.90;;;9.88;;
35326;SDS011;21436;52.348;20.928;2022-09-09T01:33:23;22.13;;;10.52;;
35326;SDS011;21436;52.348;20.928;2022-09-09T01:36:05;20.30;;;9.48;;
35326;SDS011;21436;52.348;20.928;2022-09-09T01:38:55;17.45;;;10.32;;
35326;SDS011;21436;52.348;20.928;2022-09-09T01:41:23;16.33;;;10.25;;
35326;SDS011;21436;52.348;20.928;2022-09-09T01:44:07;21.05;;;10.38;;
35326;SDS011;21436;52.348;20.928;2022-09-09T01:46:37;19.73;;;10.30;;
35326;SDS011;21436;52.348;20.928;2022-09-09T01:49:10;21.92;;;10.68;;
35326;SDS011;21436;52.348;20.928;2022-09-09T01:51:37;19.35;;;10.55;;
35326;SDS011;21436;52.348;20.928;2022-09-09T01:54:10;17.77;;;10.25;;
35326;SDS011;21436;52.348;20.928;2022-09-09T02:02:35;18.20;;;10.60;;
35326;SDS011;21436;52.348;20.928;2022-09-09T02:05:19;28.95;;;11.90;;
35326;SDS011;21436;52.348;20.928;2022-09-09T02:08:02;19.63;;;10.50;;
35326;SDS011;21436;52.348;20.928;2022-09-09T02:10:45;15.57;;;9.90;;
35326;SDS011;21436;52.348;20.928;2022-09-09T02:13:28;16.10;;;10.30;;
35326;SDS011;21436;52.348;20.928;2022-09-09T02:22:04;21.02;;;10.70;;
35326;SDS011;21436;52.348;20.928;2022-09-09T02:24:33;23.67;;;11.82;;
35326;SDS011;21436;52.348;20.928;2022-09-09T02:27:15;19.63;;;11.93;;
35326;SDS011;21436;52.348;20.928;2022-09-09T02:29:44;21.58;;;11.27;;
35326;SDS011;21436;52.348;20.928;2022-09-09T02:32:17;18.27;;;10.85;;
35326;SDS011;21436;52.348;20.928;2022-09-09T02:34:48;20.85;;;10.98;;
35326;SDS011;21436;52.348;20.928;2022-09-09T02:37:18;18.95;;;10.98;;
35326;SDS011;21436;52.348;20.928;2022-09-09T02:39:51;22.95;;;11.63;;
35326;SDS011;21436;52.348;20.928;2022-09-09T02:42:21;23.67;;;12.32;;
35326;SDS011;21436;52.348;20.928;2022-09-09T02:44:50;21.85;;;11.73;;
35326;SDS011;21436;52.348;20.928;2022-09-09T02:50:09;19.65;;;12.05;;
35326;SDS011;21436;52.348;20.928;2022-09-09T02:53:16;20.95;;;11.57;;
35326;SDS011;21436;52.348;20.928;2022-09-09T02:55:47;22.17;;;12.07;;
35326;SDS011;21436;52.348;20.928;2022-09-09T02:58:19;21.95;;;12.35;;
35326;SDS011;21436;52.348;20.928;2022-09-09T03:00:55;22.17;;;12.38;;
35326;SDS011;21436;52.348;20.928;2022-09-09T03:03:25;21.65;;;12.35;;
35326;SDS011;21436;52.348;20.928;2022-09-09T03:05:55;19.88;;;12.20;;
35326;SDS011;21436;52.348;20.928;2022-09-09T03:08:25;22.33;;;12.52;;
35326;SDS011;21436;52.348;20.928;2022-09-09T03:10:58;23.52;;;12.50;;
35326;SDS011;21436;52.348;20.928;2022-09-09T03:13:31;21.85;;;12.82;;
35326;SDS011;21436;52.348;20.928;2022-09-09T03:15:58;22.48;;;12.63;;
35326;SDS011;21436;52.348;20.928;2022-09-09T03:18:29;24.38;;;14.13;;
35326;SDS011;21436;52.348;20.928;2022-09-09T03:20:57;23.58;;;12.40;;
35326;SDS011;21436;52.348;20.928;2022-09-09T03:23:28;24.42;;;12.95;;
35326;SDS011;21436;52.348;20.928;2022-09-09T03:25:59;23.35;;;13.65;;
35326;SDS011;21436;52.348;20.928;2022-09-09T03:28:36;23.48;;;13.20;;
35326;SDS011;21436;52.348;20.928;2022-09-09T03:31:05;21.98;;;13.38;;
35326;SDS011;21436;52.348;20.928;2022-09-09T03:33:38;19.45;;;11.95;;
35326;SDS011;21436;52.348;20.928;2022-09-09T03:36:06;21.63;;;13.25;;
35326;SDS011;21436;52.348;20.928;2022-09-09T03:38:35;24.60;;;12.30;;
35326;SDS011;21436;52.348;20.928;2022-09-09T03:41:04;24.70;;;13.32;;
35326;SDS011;21436;52.348;20.928;2022-09-09T03:43:35;20.25;;;12.43;;
35326;SDS011;21436;52.348;20.928;2022-09-09T03:46:03;21.83;;;12.52;;
35326;SDS011;21436;52.348;20.928;2022-09-09T03:48:31;20.95;;;13.40;;
35326;SDS011;21436;52.348;20.928;2022-09-09T03:50:59;24.48;;;12.95;;
35326;SDS011;21436;52.348;20.928;2022-09-09T03:53:30;23.70;;;13.82;;
35326;SDS011;21436;52.348;20.928;2022-09-09T03:55:59;19.70;;;12.73;;
35326;SDS011;21436;52.348;20.928;2022-09-09T03:58:29;21.90;;;13.95;;
35326;SDS011;21436;52.348;20.928;2022-09-09T04:01:03;19.92;;;12.73;;
35326;SDS011;21436;52.348;20.928;2022-09-09T04:03:41;19.48;;;12.90;;
35326;SDS011;21436;52.348;20.928;2022-09-09T04:06:10;22.98;;;12.38;;
35326;SDS011;21436;52.348;20.928;2022-09-09T04:08:42;21.48;;;12.77;;
35326;SDS011;21436;52.348;20.928;2022-09-09T04:11:10;19.55;;;12.88;;
35326;SDS011;21436;52.348;20.928;2022-09-09T04:13:38;26.55;;;13.13;;
35326;SDS011;21436;52.348;20.928;2022-09-09T04:16:09;22.77;;;12.45;;
35326;SDS011;21436;52.348;20.928;2022-09-09T04:18:38;20.77;;;13.07;;
35326;SDS011;21436;52.348;20.928;2022-09-09T04:21:06;23.17;;;12.85;;
35326;SDS011;21436;52.348;20.928;2022-09-09T04:23:36;22.58;;;13.18;;
35326;SDS011;21436;52.348;20.928;2022-09-09T04:26:04;20.40;;;12.40;;
35326;SDS011;21436;52.348;20.928;2022-09-09T04:28:34;20.20;;;12.82;;
35326;SDS011;21436;52.348;20.928;2022-09-09T04:33:38;20.05;;;12.10;;
35326;SDS011;21436;52.348;20.928;2022-09-09T04:36:08;21.58;;;12.07;;
35326;SDS011;21436;52.348;20.928;2022-09-09T04:38:36;21.70;;;12.38;;
35326;SDS011;21436;52.348;20.928;2022-09-09T04:41:04;18.67;;;11.90;;
35326;SDS011;21436;52.348;20.928;2022-09-09T04:43:34;18.92;;;12.88;;
35326;SDS011;21436;52.348;20.928;2022-09-09T04:46:04;21.25;;;13.80;;
35326;SDS011;21436;52.348;20.928;2022-09-09T04:48:33;20.70;;;12.70;;
35326;SDS011;21436;52.348;20.928;2022-09-09T04:51:05;21.42;;;12.77;;
35326;SDS011;21436;52.348;20.928;2022-09-09T04:53:34;20.40;;;13.05;;
35326;SDS011;21436;52.348;20.928;2022-09-09T04:56:02;21.65;;;13.65;;
35326;SDS011;21436;52.348;20.928;2022-09-09T04:58:38;17.73;;;12.20;;
35326;SDS011;21436;52.348;20.928;2022-09-09T05:01:16;18.63;;;11.50;;
35326;SDS011;21436;52.348;20.928;2022-09-09T05:03:47;20.58;;;13.10;;
35326;SDS011;21436;52.348;20.928;2022-09-09T05:06:20;23.13;;;13.38;;
35326;SDS011;21436;52.348;20.928;2022-09-09T05:08:52;20.02;;;12.23;;
35326;SDS011;21436;52.348;20.928;2022-09-09T05:11:24;16.65;;;11.57;;
35326;SDS011;21436;52.348;20.928;2022-09-09T05:14:01;20.58;;;11.68;;
35326;SDS011;21436;52.348;20.928;2022-09-09T05:16:30;19.90;;;12.18;;
35326;SDS011;21436;52.348;20.928;2022-09-09T05:18:58;25.00;;;12.43;;
35326;SDS011;21436;52.348;20.928;2022-09-09T05:21:35;15.65;;;11.63;;
35326;SDS011;21436;52.348;20.928;2022-09-09T05:24:03;16.05;;;10.57;;
35326;SDS011;21436;52.348;20.928;2022-09-09T05:26:30;17.60;;;10.45;;
35326;SDS011;21436;52.348;20.928;2022-09-09T05:29:00;17.92;;;10.98;;
35326;SDS011;21436;52.348;20.928;2022-09-09T05:31:30;17.55;;;11.20;;
35326;SDS011;21436;52.348;20.928;2022-09-09T05:34:02;16.98;;;11.27;;
35326;SDS011;21436;52.348;20.928;2022-09-09T05:36:30;18.63;;;11.05;;
35326;SDS011;21436;52.348;20.928;2022-09-09T05:38:58;21.33;;;11.88;;
35326;SDS011;21436;52.348;20.928;2022-09-09T05:41:27;18.02;;;11.32;;
35326;SDS011;21436;52.348;20.928;2022-09-09T05:43:57;19.20;;;11.63;;
35326;SDS011;21436;52.348;20.928;2022-09-09T05:46:30;16.83;;;10.98;;
35326;SDS011;21436;52.348;20.928;2022-09-09T05:48:58;16.38;;;11.40;;
35326;SDS011;21436;52.348;20.928;2022-09-09T05:51:29;17.83;;;11.18;;
35326;SDS011;21436;52.348;20.928;2022-09-09T05:54:05;16.50;;;11.38;;
35326;SDS011;21436;52.348;20.928;2022-09-09T05:56:37;19.95;;;11.15;;
35326;SDS011;21436;52.348;20.928;2022-09-09T05:59:06;17.10;;;11.68;;
35326;SDS011;21436;52.348;20.928;2022-09-09T06:01:35;17.83;;;11.68;;
35326;SDS011;21436;52.348;20.928;2022-09-09T06:04:10;16.02;;;11.68;;
35326;SDS011;21436;52.348;20.928;2022-09-09T06:06:40;19.65;;;12.30;;
35326;SDS011;21436;52.348;20.928;2022-09-09T06:09:15;17.00;;;11.18;;
35326;SDS011;21436;52.348;20.928;2022-09-09T06:11:43;13.27;;;10.23;;
35326;SDS011;21436;52.348;20.928;2022-09-09T06:14:12;17.25;;;11.57;;
35326;SDS011;21436;52.348;20.928;2022-09-09T06:16:40;16.05;;;10.98;;
35326;SDS011;21436;52.348;20.928;2022-09-09T06:19:16;17.23;;;11.50;;
35326;SDS011;21436;52.348;20.928;2022-09-09T06:21:44;17.98;;;10.77;;
35326;SDS011;21436;52.348;20.928;2022-09-09T06:24:12;15.98;;;10.13;;
35326;SDS011;21436;52.348;20.928;2022-09-09T06:26:44;15.15;;;10.63;;
35326;SDS011;21436;52.348;20.928;2022-09-09T06:29:18;16.27;;;9.05;;
35326;SDS011;21436;52.348;20.928;2022-09-09T06:31:45;16.65;;;10.57;;
35326;SDS011;21436;52.348;20.928;2022-09-09T06:34:15;13.52;;;10.63;;
35326;SDS011;21436;52.348;20.928;2022-09-09T06:36:48;15.43;;;11.02;;
35326;SDS011;21436;52.348;20.928;2022-09-09T06:39:16;17.35;;;11.02;;
35326;SDS011;21436;52.348;20.928;2022-09-09T06:41:44;16.77;;;11.88;;
35326;SDS011;21436;52.348;20.928;2022-09-09T06:44:30;16.85;;;10.75;;
35326;SDS011;21436;52.348;20.928;2022-09-09T06:47:02;15.65;;;10.88;;
35326;SDS011;21436;52.348;20.928;2022-09-09T06:49:32;15.52;;;10.48;;
35326;SDS011;21436;52.348;20.928;2022-09-09T06:52:01;16.85;;;11.25;;
35326;SDS011;21436;52.348;20.928;2022-09-09T06:54:29;15.65;;;10.80;;
35326;SDS011;21436;52.348;20.928;2022-09-09T06:56:58;16.13;;;10.52;;
35326;SDS011;21436;52.348;20.928;2022-09-09T06:59:48;14.98;;;11.00;;
35326;SDS011;21436;52.348;20.928;2022-09-09T07:02:15;15.48;;;10.60;;
35326;SDS011;21436;52.348;20.928;2022-09-09T07:04:43;15.23;;;11.52;;
35326;SDS011;21436;52.348;20.928;2022-09-09T07:07:11;18.35;;;11.63;;
35326;SDS011;21436;52.348;20.928;2022-09-09T07:09:40;17.08;;;11.00;;
35326;SDS011;21436;52.348;20.928;2022-09-09T07:12:08;17.17;;;11.50;;
35326;SDS011;21436;52.348;20.928;2022-09-09T07:14:40;19.60;;;12.43;;
35326;SDS011;21436;52.348;20.928;2022-09-09T07:17:09;17.65;;;11.88;;
35326;SDS011;21436;52.348;20.928;2022-09-09T07:19:39;20.50;;;11.65;;
35326;SDS011;21436;52.348;20.928;2022-09-09T07:22:06;16.75;;;11.48;;
35326;SDS011;21436;52.348;20.928;2022-09-09T07:24:35;18.40;;;11.60;;
35326;SDS011;21436;52.348;20.928;2022-09-09T07:27:02;18.63;;;11.48;;
35326;SDS011;21436;52.348;20.928;2022-09-09T07:29:30;22.27;;;13.10;;
35326;SDS011;21436;52.348;20.928;2022-09-09T07:31:59;18.50;;;12.23;;
35326;SDS011;21436;52.348;20.928;2022-09-09T07:36:59;20.85;;;12.35;;
35326;SDS011;21436;52.348;20.928;2022-09-09T07:39:28;24.13;;;12.38;;
35326;SDS011;21436;52.348;20.928;2022-09-09T07:41:56;18.98;;;11.93;;
35326;SDS011;21436;52.348;20.928;2022-09-09T07:44:23;19.85;;;12.77;;
35326;SDS011;21436;52.348;20.928;2022-09-09T07:47:01;24.65;;;14.25;;
35326;SDS011;21436;52.348;20.928;2022-09-09T07:49:35;22.08;;;13.05;;
35326;SDS011;21436;52.348;20.928;2022-09-09T07:52:04;21.05;;;13.38;;
35326;SDS011;21436;52.348;20.928;2022-09-09T07:54:34;21.23;;;14.02;;
35326;SDS011;21436;52.348;20.928;2022-09-09T07:57:04;20.63;;;13.88;;
35326;SDS011;21436;52.348;20.928;2022-09-09T07:59:34;25.70;;;13.98;;
35326;SDS011;21436;52.348;20.928;2022-09-09T08:02:03;23.83;;;15.18;;
35326;SDS011;21436;52.348;20.928;2022-09-09T08:04:33;24.48;;;16.42;;
35326;SDS011;21436;52.348;20.928;2022-09-09T08:07:02;24.08;;;15.93;;
35326;SDS011;21436;52.348;20.928;2022-09-09T08:09:36;26.58;;;16.50;;
35326;SDS011;21436;52.348;20.928;2022-09-09T08:12:10;25.50;;;16.27;;
35326;SDS011;21436;52.348;20.928;2022-09-09T08:14:38;26.48;;;16.63;;
35326;SDS011;21436;52.348;20.928;2022-09-09T08:17:07;24.92;;;15.15;;
35326;SDS011;21436;52.348;20.928;2022-09-09T08:19:34;24.35;;;16.45;;
35326;SDS011;21436;52.348;20.928;2022-09-09T08:22:07;26.63;;;16.00;;
35326;SDS011;21436;52.348;20.928;2022-09-09T08:24:38;29.60;;;17.40;;
35326;SDS011;21436;52.348;20.928;2022-09-09T08:27:06;33.55;;;17.70;;
35326;SDS011;21436;52.348;20.928;2022-09-09T08:29:34;29.27;;;16.95;;
35326;SDS011;21436;52.348;20.928;2022-09-09T08:32:02;33.20;;;17.80;;
35326;SDS011;21436;52.348;20.928;2022-09-09T08:34:30;32.20;;;18.65;;
35326;SDS011;21436;52.348;20.928;2022-09-09T08:37:02;32.30;;;18.45;;
35326;SDS011;21436;52.348;20.928;2022-09-09T08:39:36;37.00;;;18.67;;
35326;SDS011;21436;52.348;20.928;2022-09-09T08:50:24;51.08;;;32.33;;
35326;SDS011;21436;52.348;20.928;2022-09-09T08:53:05;32.17;;;20.65;;
35326;SDS011;21436;52.348;20.928;2022-09-09T08:55:45;31.85;;;19.95;;
35326;SDS011;21436;52.348;20.928;2022-09-09T08:58:20;34.70;;;18.67;;
35326;SDS011;21436;52.348;20.928;2022-09-09T09:06:09;31.38;;;19.98;;
35326;SDS011;21436;52.348;20.928;2022-09-09T09:11:39;33.97;;;18.73;;
35326;SDS011;21436;52.348;20.928;2022-09-09T09:14:11;35.25;;;21.20;;
35326;SDS011;21436;52.348;20.928;2022-09-09T09:19:18;34.20;;;20.73;;
35326;SDS011;21436;52.348;20.928;2022-09-09T09:22:31;38.60;;;21.67;;
35326;SDS011;21436;52.348;20.928;2022-09-09T09:30:14;39.13;;;21.95;;
35326;SDS011;21436;52.348;20.928;2022-09-09T09:32:59;36.70;;;21.90;;
35326;SDS011;21436;52.348;20.928;2022-09-09T09:35:50;34.33;;;21.10;;
35326;SDS011;21436;52.348;20.928;2022-09-09T09:38:22;40.00;;;19.98;;
35326;SDS011;21436;52.348;20.928;2022-09-09T09:41:12;55.50;;;24.15;;
35326;SDS011;21436;52.348;20.928;2022-09-09T09:43:41;40.75;;;21.63;;
35326;SDS011;21436;52.348;20.928;2022-09-09T09:46:20;40.10;;;21.30;;
35326;SDS011;21436;52.348;20.928;2022-09-09T09:49:00;39.75;;;22.25;;
35326;SDS011;21436;52.348;20.928;2022-09-09T09:51:31;43.40;;;22.58;;
35326;SDS011;21436;52.348;20.928;2022-09-09T09:56:41;48.35;;;26.10;;
35326;SDS011;21436;52.348;20.928;2022-09-09T09:59:24;47.13;;;25.60;;
35326;SDS011;21436;52.348;20.928;2022-09-09T10:08:04;46.17;;;26.25;;
35326;SDS011;21436;52.348;20.928;2022-09-09T10:40:34;44.95;;;25.10;;
35326;SDS011;21436;52.348;20.928;2022-09-09T10:43:25;51.90;;;24.60;;
35326;SDS011;21436;52.348;20.928;2022-09-09T10:46:03;50.25;;;27.63;;
35326;SDS011;21436;52.348;20.928;2022-09-09T10:51:19;52.67;;;29.75;;
35326;SDS011;21436;52.348;20.928;2022-09-09T10:56:34;54.25;;;28.98;;
35326;SDS011;21436;52.348;20.928;2022-09-09T10:59:07;50.90;;;27.63;;
35326;SDS011;21436;52.348;20.928;2022-09-09T11:01:41;49.83;;;27.63;;
35326;SDS011;21436;52.348;20.928;2022-09-09T11:04:16;54.15;;;28.33;;
35326;SDS011;21436;52.348;20.928;2022-09-09T11:06:49;54.85;;;31.30;;
35326;SDS011;21436;52.348;20.928;2022-09-09T11:09:21;55.50;;;30.35;;
35326;SDS011;21436;52.348;20.928;2022-09-09T11:11:54;57.20;;;33.03;;
35326;SDS011;21436;52.348;20.928;2022-09-09T11:17:15;51.25;;;28.45;;
35326;SDS011;21436;52.348;20.928;2022-09-09T11:19:46;55.55;;;29.77;;
35326;SDS011;21436;52.348;20.928;2022-09-09T11:44:41;72.60;;;36.10;;
35326;SDS011;21436;52.348;20.928;2022-09-09T11:50:27;59.80;;;32.78;;
35326;SDS011;21436;52.348;20.928;2022-09-09T11:53:05;61.72;;;32.35;;
35326;SDS011;21436;52.348;20.928;2022-09-09T11:56:01;64.32;;;32.35;;
35326;SDS011;21436;52.348;20.928;2022-09-09T11:58:31;62.40;;;30.58;;
35326;SDS011;21436;52.348;20.928;2022-09-09T12:01:12;58.95;;;30.88;;
35326;SDS011;21436;52.348;20.928;2022-09-09T12:03:48;54.30;;;30.88;;
35326;SDS011;21436;52.348;20.928;2022-09-09T12:09:06;65.88;;;32.58;;
35326;SDS011;21436;52.348;20.928;2022-09-09T12:11:35;61.63;;;33.10;;
35326;SDS011;21436;52.348;20.928;2022-09-09T12:14:04;62.72;;;32.85;;
35326;SDS011;21436;52.348;20.928;2022-09-09T12:16:36;67.32;;;35.10;;
35326;SDS011;21436;52.348;20.928;2022-09-09T12:19:12;61.20;;;34.38;;
35326;SDS011;21436;52.348;20.928;2022-09-09T12:21:58;64.13;;;34.33;;
35326;SDS011;21436;52.348;20.928;2022-09-09T12:28:22;68.28;;;33.78;;
35326;SDS011;21436;52.348;20.928;2022-09-09T12:30:40;63.90;;;32.70;;
35326;SDS011;21436;52.348;20.928;2022-09-09T12:33:16;68.05;;;33.63;;
35326;SDS011;21436;52.348;20.928;2022-09-09T12:35:46;69.07;;;33.40;;
35326;SDS011;21436;52.348;20.928;2022-09-09T12:38:22;59.72;;;30.85;;
35326;SDS011;21436;52.348;20.928;2022-09-09T12:40:59;64.18;;;32.38;;
35326;SDS011;21436;52.348;20.928;2022-09-09T12:43:27;68.47;;;33.55;;
35326;SDS011;21436;52.348;20.928;2022-09-09T12:46:07;67.82;;;32.17;;
35326;SDS011;21436;52.348;20.928;2022-09-09T12:48:38;66.40;;;32.25;;
35326;SDS011;21436;52.348;20.928;2022-09-09T12:51:23;60.85;;;32.85;;
35326;SDS011;21436;52.348;20.928;2022-09-09T12:53:55;64.82;;;32.97;;
35326;SDS011;21436;52.348;20.928;2022-09-09T12:56:30;66.75;;;33.88;;
35326;SDS011;21436;52.348;20.928;2022-09-09T12:58:58;59.55;;;30.90;;
35326;SDS011;21436;52.348;20.928;2022-09-09T13:01:28;64.75;;;32.30;;
35326;SDS011;21436;52.348;20.928;2022-09-09T13:04:00;62.63;;;30.80;;
35326;SDS011;21436;52.348;20.928;2022-09-09T13:06:28;59.25;;;31.33;;
35326;SDS011;21436;52.348;20.928;2022-09-09T13:08:58;63.78;;;32.22;;
35326;SDS011;21436;52.348;20.928;2022-09-09T13:14:03;69.55;;;32.25;;
35326;SDS011;21436;52.348;20.928;2022-09-09T13:16:32;63.75;;;32.30;;
35326;SDS011;21436;52.348;20.928;2022-09-09T13:19:08;61.53;;;32.40;;
35326;SDS011;21436;52.348;20.928;2022-09-09T13:21:45;73.45;;;32.45;;
35326;SDS011;21436;52.348;20.928;2022-09-09T13:27:04;68.25;;;31.23;;
35326;SDS011;21436;52.348;20.928;2022-09-09T13:29:52;71.63;;;33.10;;
35326;SDS011;21436;52.348;20.928;2022-09-09T13:32:23;67.60;;;33.97;;
35326;SDS011;21436;52.348;20.928;2022-09-09T13:34:56;62.28;;;31.73;;
35326;SDS011;21436;52.348;20.928;2022-09-09T13:39:56;75.18;;;34.63;;
35326;SDS011;21436;52.348;20.928;2022-09-09T13:42:24;73.13;;;32.58;;
35326;SDS011;21436;52.348;20.928;2022-09-09T13:44:54;70.32;;;32.10;;
35326;SDS011;21436;52.348;20.928;2022-09-09T13:47:27;68.78;;;31.33;;
35326;SDS011;21436;52.348;20.928;2022-09-09T13:52:23;67.72;;;31.70;;
35326;SDS011;21436;52.348;20.928;2022-09-09T13:54:51;71.95;;;31.90;;
35326;SDS011;21436;52.348;20.928;2022-09-09T13:57:23;69.90;;;32.33;;
35326;SDS011;21436;52.348;20.928;2022-09-09T13:59:52;71.57;;;33.03;;
35326;SDS011;21436;52.348;20.928;2022-09-09T14:02:37;72.28;;;32.00;;
35326;SDS011;21436;52.348;20.928;2022-09-09T14:05:06;72.05;;;31.40;;
35326;SDS011;21436;52.348;20.928;2022-09-09T14:07:33;79.25;;;33.65;;
35326;SDS011;21436;52.348;20.928;2022-09-09T14:10:01;66.00;;;32.20;;
35326;SDS011;21436;52.348;20.928;2022-09-09T14:12:29;77.97;;;34.40;;
35326;SDS011;21436;52.348;20.928;2022-09-09T14:14:56;84.45;;;34.72;;
35326;SDS011;21436;52.348;20.928;2022-09-09T14:17:24;74.32;;;34.78;;
35326;SDS011;21436;52.348;20.928;2022-09-09T14:19:52;90.88;;;35.30;;
35326;SDS011;21436;52.348;20.928;2022-09-09T14:22:19;77.00;;;33.55;;
35326;SDS011;21436;52.348;20.928;2022-09-09T14:24:47;83.82;;;33.53;;
35326;SDS011;21436;52.348;20.928;2022-09-09T14:27:15;84.32;;;36.05;;
35326;SDS011;21436;52.348;20.928;2022-09-09T14:29:43;78.00;;;32.78;;
35326;SDS011;21436;52.348;20.928;2022-09-09T14:32:11;77.75;;;33.38;;
35326;SDS011;21436;52.348;20.928;2022-09-09T14:34:39;73.40;;;32.47;;
35326;SDS011;21436;52.348;20.928;2022-09-09T14:37:07;76.15;;;32.50;;
35326;SDS011;21436;52.348;20.928;2022-09-09T14:39:35;73.38;;;32.97;;
35326;SDS011;21436;52.348;20.928;2022-09-09T14:42:02;81.57;;;34.60;;
35326;SDS011;21436;52.348;20.928;2022-09-09T14:44:31;72.35;;;32.70;;
35326;SDS011;21436;52.348;20.928;2022-09-09T14:46:59;71.47;;;32.17;;
35326;SDS011;21436;52.348;20.928;2022-09-09T14:49:26;67.07;;;31.70;;
35326;SDS011;21436;52.348;20.928;2022-09-09T14:51:53;67.80;;;32.88;;
35326;SDS011;21436;52.348;20.928;2022-09-09T14:54:21;79.55;;;31.83;;
35326;SDS011;21436;52.348;20.928;2022-09-09T14:56:50;76.43;;;31.70;;
35326;SDS011;21436;52.348;20.928;2022-09-09T14:59:17;66.88;;;30.33;;
35326;SDS011;21436;52.348;20.928;2022-09-09T15:01:45;67.85;;;30.73;;
35326;SDS011;21436;52.348;20.928;2022-09-09T15:04:12;74.50;;;34.03;;
35326;SDS011;21436;52.348;20.928;2022-09-09T15:06:41;63.22;;;29.65;;
35326;SDS011;21436;52.348;20.928;2022-09-09T15:09:11;69.50;;;32.15;;
35326;SDS011;21436;52.348;20.928;2022-09-09T15:11:38;61.88;;;30.10;;
35326;SDS011;21436;52.348;20.928;2022-09-09T15:14:07;63.63;;;30.90;;
35326;SDS011;21436;52.348;20.928;2022-09-09T15:16:36;63.13;;;30.27;;
35326;SDS011;21436;52.348;20.928;2022-09-09T15:19:03;66.68;;;33.30;;
35326;SDS011;21436;52.348;20.928;2022-09-09T15:21:32;75.75;;;35.30;;
35326;SDS011;21436;52.348;20.928;2022-09-09T15:24:01;67.55;;;32.10;;
35326;SDS011;21436;52.348;20.928;2022-09-09T15:26:28;76.50;;;37.47;;
35326;SDS011;21436;52.348;20.928;2022-09-09T15:28:57;77.63;;;33.47;;
35326;SDS011;21436;52.348;20.928;2022-09-09T15:31:27;63.05;;;31.45;;
35326;SDS011;21436;52.348;20.928;2022-09-09T15:33:57;59.55;;;29.10;;
35326;SDS011;21436;52.348;20.928;2022-09-09T15:39:09;67.25;;;31.85;;
35326;SDS011;21436;52.348;20.928;2022-09-09T15:41:40;67.10;;;29.50;;
35326;SDS011;21436;52.348;20.928;2022-09-09T15:44:07;67.38;;;31.25;;
35326;SDS011;21436;52.348;20.928;2022-09-09T15:46:39;61.95;;;30.38;;
35326;SDS011;21436;52.348;20.928;2022-09-09T15:49:13;61.97;;;31.33;;
35326;SDS011;21436;52.348;20.928;2022-09-09T15:51:46;65.22;;;31.63;;
35326;SDS011;21436;52.348;20.928;2022-09-09T15:54:18;64.10;;;30.50;;
35326;SDS011;21436;52.348;20.928;2022-09-09T15:56:49;64.70;;;30.55;;
35326;SDS011;21436;52.348;20.928;2022-09-09T15:59:19;64.80;;;30.38;;
35326;SDS011;21436;52.348;20.928;2022-09-09T16:01:46;66.13;;;31.60;;
35326;SDS011;21436;52.348;20.928;2022-09-09T16:04:14;64.68;;;32.00;;
35326;SDS011;21436;52.348;20.928;2022-09-09T16:06:47;64.15;;;28.92;;
35326;SDS011;21436;52.348;20.928;2022-09-09T16:09:14;62.53;;;30.60;;
35326;SDS011;21436;52.348;20.928;2022-09-09T16:11:42;64.25;;;33.88;;
35326;SDS011;21436;52.348;20.928;2022-09-09T16:14:09;71.97;;;35.80;;
35326;SDS011;21436;52.348;20.928;2022-09-09T16:16:37;59.72;;;31.10;;
35326;SDS011;21436;52.348;20.928;2022-09-09T16:19:06;70.00;;;34.75;;
35326;SDS011;21436;52.348;20.928;2022-09-09T16:21:38;65.43;;;34.90;;
35326;SDS011;21436;52.348;20.928;2022-09-09T16:24:07;65.90;;;34.28;;
35326;SDS011;21436;52.348;20.928;2022-09-09T16:26:37;57.60;;;29.83;;
35326;SDS011;21436;52.348;20.928;2022-09-09T16:29:12;59.70;;;31.20;;
35326;SDS011;21436;52.348;20.928;2022-09-09T16:31:41;61.85;;;28.55;;
35326;SDS011;21436;52.348;20.928;2022-09-09T16:34:12;56.72;;;29.90;;
35326;SDS011;21436;52.348;20.928;2022-09-09T16:36:42;59.97;;;30.77;;
35326;SDS011;21436;52.348;20.928;2022-09-09T16:39:12;64.50;;;31.10;;
35326;SDS011;21436;52.348;20.928;2022-09-09T16:41:42;60.55;;;29.73;;
35326;SDS011;21436;52.348;20.928;2022-09-09T16:44:11;61.28;;;31.17;;
35326;SDS011;21436;52.348;20.928;2022-09-09T16:46:40;59.22;;;29.27;;
35326;SDS011;21436;52.348;20.928;2022-09-09T16:49:10;57.28;;;29.42;;
35326;SDS011;21436;52.348;20.928;2022-09-09T16:51:40;53.00;;;27.40;;
35326;SDS011;21436;52.348;20.928;2022-09-09T16:54:09;63.15;;;31.00;;
35326;SDS011;21436;52.348;20.928;2022-09-09T16:56:39;55.92;;;30.20;;
35326;SDS011;21436;52.348;20.928;2022-09-09T16:59:11;56.78;;;28.65;;
35326;SDS011;21436;52.348;20.928;2022-09-09T17:01:41;52.17;;;27.00;;
35326;SDS011;21436;52.348;20.928;2022-09-09T17:04:11;52.97;;;28.50;;
35326;SDS011;21436;52.348;20.928;2022-09-09T17:06:45;62.70;;;31.40;;
35326;SDS011;21436;52.348;20.928;2022-09-09T17:09:19;61.40;;;28.73;;
35326;SDS011;21436;52.348;20.928;2022-09-09T17:11:47;63.80;;;31.45;;
35326;SDS011;21436;52.348;20.928;2022-09-09T17:14:18;60.28;;;31.48;;
35326;SDS011;21436;52.348;20.928;2022-09-09T17:16:47;63.22;;;32.03;;
35326;SDS011;21436;52.348;20.928;2022-09-09T17:19:15;62.42;;;32.53;;
35326;SDS011;21436;52.348;20.928;2022-09-09T17:21:43;62.80;;;30.27;;
35326;SDS011;21436;52.348;20.928;2022-09-09T17:24:34;66.30;;;32.38;;
35326;SDS011;21436;52.348;20.928;2022-09-09T17:27:02;57.80;;;30.77;;
35326;SDS011;21436;52.348;20.928;2022-09-09T17:29:30;62.78;;;31.45;;